Time;durP1;ratioP1;P1;durP2;ratioP2;P2;SDS_P1;SDS_P2;PMS_P1;PMS_P2;Temp;Humidity;BMP_temperature;BMP_pressure;BME280_temperature;BME280_humidity;BME280_pressure;Samples;Min_cycle;Max_cycle;Signal;HPM_P1;HPM_P2
2024/01/22 00:02:10;;;;;;;15.93;8.27;;;;;;;-8.99;100.00;101114.47;5017604;28;20391;-68
2024/01/22 00:04:36;;;;;;;16.33;8.13;;;;;;;-9.08;100.00;101123.06;5050338;28;20374;-67
2024/01/22 00:07:03;;;;;;;18.47;8.80;;;;;;;-9.05;100.00;101107.63;5037022;28;20048;-67
2024/01/22 00:09:29;;;;;;;16.43;7.90;;;;;;;-9.11;100.00;101096.47;5021617;28;20056;-68
2024/01/22 00:11:57;;;;;;;13.23;6.73;;;;;;;-9.13;100.00;101103.31;5053586;28;20283;-68
2024/01/22 00:14:23;;;;;;;14.67;7.70;;;;;;;-9.13;100.00;101118.75;5037090;28;20635;-68
2024/01/22 00:16:50;;;;;;;15.47;7.83;;;;;;;-8.94;100.00;101116.19;5005078;28;20056;-68
2024/01/22 00:19:16;;;;;;;17.83;7.67;;;;;;;-9.01;100.00;101121.34;5050060;28;20052;-68
2024/01/22 00:21:43;;;;;;;16.57;7.57;;;;;;;-8.91;100.00;101110.16;5039776;28;20766;-68
2024/01/22 00:24:10;;;;;;;12.13;6.33;;;;;;;-8.97;100.00;101111.03;5059766;28;20055;-69
2024/01/22 00:26:35;;;;;;;14.07;7.40;;;;;;;-8.98;100.00;101103.31;5025179;28;20301;-68
2024/01/22 00:29:02;;;;;;;14.07;7.53;;;;;;;-9.00;100.00;101102.47;5057801;28;20109;-68
2024/01/22 00:31:28;;;;;;;20.77;8.30;;;;;;;-9.05;100.00;101099.03;5056905;28;20688;-68
2024/01/22 00:33:55;;;;;;;19.83;8.70;;;;;;;-9.09;100.00;101084.47;5056783;28;20150;-69
2024/01/22 00:36:21;;;;;;;21.33;8.57;;;;;;;-9.12;100.00;101085.31;5040371;28;20289;-69
2024/01/22 00:38:49;;;;;;;18.43;7.87;;;;;;;-9.13;100.00;101087.88;5073231;28;20320;-69
2024/01/22 00:41:16;;;;;;;17.40;7.73;;;;;;;-9.18;100.00;101087.88;5072978;28;20286;-69
2024/01/22 00:43:43;;;;;;;15.70;7.87;;;;;;;-9.15;100.00;101081.91;5039979;28;20459;-69
2024/01/22 00:46:09;;;;;;;17.93;8.23;;;;;;;-9.22;100.00;101098.19;5056920;28;20344;-68
2024/01/22 00:48:34;;;;;;;19.53;8.13;;;;;;;-9.17;100.00;101101.63;5056037;28;21167;-69
2024/01/22 00:51:00;;;;;;;21.07;8.93;;;;;;;-9.21;100.00;101103.31;5090247;28;20145;-69
2024/01/22 00:53:26;;;;;;;20.67;8.90;;;;;;;-9.26;100.00;101092.19;5114098;28;20490;-68
2024/01/22 00:55:52;;;;;;;18.83;9.37;;;;;;;-9.30;100.00;101099.91;5114984;27;20078;-68
2024/01/22 00:58:20;;;;;;;15.93;8.70;;;;;;;-9.34;100.00;101108.47;5114542;28;20510;-69
2024/01/22 01:00:45;;;;;;;21.47;8.93;;;;;;;-9.39;100.00;101102.47;5080968;27;20333;-69
2024/01/22 01:03:11;;;;;;;18.07;8.10;;;;;;;-9.43;100.00;101096.47;5096748;28;20301;-68
2024/01/22 01:05:37;;;;;;;18.20;8.40;;;;;;;-9.38;100.00;101093.91;5114420;27;20531;-68
2024/01/22 01:08:04;;;;;;;17.07;8.37;;;;;;;-9.37;100.00;101077.63;5080958;28;20039;-69
2024/01/22 01:10:29;;;;;;;23.73;8.67;;;;;;;-9.36;100.00;101082.75;5097380;28;20035;-69
2024/01/22 01:12:55;;;;;;;23.47;8.73;;;;;;;-9.38;100.00;101084.47;5080378;27;20678;-68
2024/01/22 01:15:23;;;;;;;19.20;9.47;;;;;;;-9.32;100.00;101087.06;5080936;28;20047;-68
2024/01/22 01:17:48;;;;;;;21.07;8.83;;;;;;;-9.31;100.00;101087.91;5080964;28;20039;-68
2024/01/22 01:20:14;;;;;;;20.53;9.23;;;;;;;-9.32;100.00;101091.34;5081267;28;20304;-69
2024/01/22 01:22:40;;;;;;;24.70;9.63;;;;;;;-9.29;100.00;101091.34;5081524;27;20134;-68
2024/01/22 01:25:07;;;;;;;16.97;7.80;;;;;;;-9.31;100.00;101108.47;5116082;28;20430;-68
2024/01/22 01:27:35;;;;;;;17.93;8.47;;;;;;;-9.23;100.00;101112.78;5081781;28;20055;-68
2024/01/22 01:30:02;;;;;;;20.40;8.50;;;;;;;-9.39;100.00;101115.31;5118511;27;20301;-69
2024/01/22 01:32:31;;;;;;;17.53;8.13;;;;;;;-9.38;100.00;101107.59;5085635;27;20292;-70
2024/01/22 01:35:01;;;;;;;19.00;9.25;;;;;;;-9.41;100.00;101106.78;5087442;27;20295;-69
2024/01/22 01:37:29;;;;;;;16.83;8.43;;;;;;;-9.42;100.00;101107.59;5119531;27;20047;-69
2024/01/22 01:39:55;;;;;;;20.00;9.40;;;;;;;-9.41;100.00;101102.47;5084226;27;20296;-69
2024/01/22 01:42:22;;;;;;;15.97;7.70;;;;;;;-9.33;100.00;101115.34;5101239;27;20091;-69
2024/01/22 01:44:49;;;;;;;16.47;8.83;;;;;;;-9.29;100.00;101114.47;5100969;27;20345;-69
2024/01/22 01:47:16;;;;;;;18.93;8.43;;;;;;;-9.34;100.00;101118.75;5084338;27;20668;-69
2024/01/22 01:49:42;;;;;;;16.30;7.97;;;;;;;-9.32;100.00;101115.34;5084942;27;20360;-69
2024/01/22 01:52:12;;;;;;;17.17;8.23;;;;;;;-9.23;100.00;101112.78;5091570;28;20281;-69
2024/01/22 01:54:38;;;;;;;17.93;8.47;;;;;;;-9.39;100.00;101110.19;5097080;28;20345;-70
2024/01/22 01:57:08;;;;;;;18.50;8.63;;;;;;;-9.24;100.00;101116.19;5097327;28;20289;-69
2024/01/22 01:59:41;;;;;;;18.13;8.07;;;;;;;-9.26;100.00;101110.22;5080629;28;20289;-69
2024/01/22 02:02:07;;;;;;;24.83;8.43;;;;;;;-9.35;100.00;101107.59;5097771;28;20316;-69
2024/01/22 02:04:33;;;;;;;16.40;8.47;;;;;;;-9.38;100.00;101102.47;5063317;28;20722;-69
2024/01/22 02:06:59;;;;;;;19.60;8.43;;;;;;;-9.36;100.00;101107.59;5063497;28;20058;-69
2024/01/22 02:09:46;;;;;;;15.13;8.10;;;;;;;-9.26;100.00;101104.19;5063401;28;20039;-69
2024/01/22 02:12:12;;;;;;;21.47;8.47;;;;;;;-9.36;100.00;101110.19;5063963;28;20828;-69
2024/01/22 02:14:38;;;;;;;17.63;8.47;;;;;;;-9.43;100.00;101108.47;5063427;28;20618;-70
2024/01/22 02:17:04;;;;;;;15.90;8.43;;;;;;;-9.37;100.00;101100.75;5080104;28;20769;-69
2024/01/22 02:19:31;;;;;;;19.00;8.50;;;;;;;-9.26;100.00;101114.47;5080620;28;20035;-69
2024/01/22 02:21:57;;;;;;;20.40;9.50;;;;;;;-9.46;100.00;101114.47;5064181;28;20071;-69
2024/01/22 02:24:23;;;;;;;16.43;8.17;;;;;;;-9.42;100.00;101115.31;5081689;28;20305;-69
2024/01/22 02:26:50;;;;;;;17.57;8.77;;;;;;;-9.37;100.00;101113.63;5081586;28;20290;-68
2024/01/22 02:29:17;;;;;;;18.60;8.20;;;;;;;-9.33;100.00;101115.34;5064770;28;20054;-70
2024/01/22 02:31:43;;;;;;;18.60;8.27;;;;;;;-9.29;100.00;101111.91;5064001;28;20282;-71
2024/01/22 02:34:11;;;;;;;14.90;7.67;;;;;;;-9.35;100.00;101104.19;5063472;28;20285;-69
2024/01/22 02:36:37;;;;;;;15.87;7.53;;;;;;;-9.34;100.00;101111.03;5080424;28;20585;-68
2024/01/22 02:39:03;;;;;;;15.93;8.23;;;;;;;-9.37;100.00;101104.19;5079269;28;20289;-68
2024/01/22 02:41:29;;;;;;;15.27;7.23;;;;;;;-9.36;100.00;101116.19;5079603;28;20295;-68
2024/01/22 02:43:55;;;;;;;22.93;7.93;;;;;;;-9.42;100.00;101103.31;5062661;28;20044;-68
2024/01/22 02:46:21;;;;;;;18.67;8.23;;;;;;;-9.47;100.00;101102.47;5079558;28;20061;-68
2024/01/22 02:48:48;;;;;;;17.67;7.80;;;;;;;-9.38;100.00;101115.31;5096283;28;20096;-68
2024/01/22 02:51:16;;;;;;;19.60;8.47;;;;;;;-9.35;100.00;101109.34;5079574;28;20487;-68
2024/01/22 02:53:41;;;;;;;16.70;7.57;;;;;;;-9.27;100.00;101112.78;5062547;28;20784;-68
2024/01/22 02:56:08;;;;;;;16.10;7.93;;;;;;;-9.10;100.00;101104.19;5079168;28;20297;-70
2024/01/22 02:58:35;;;;;;;16.37;7.33;;;;;;;-9.18;100.00;101111.03;5079439;28;20191;-69
2024/01/22 03:01:01;;;;;;;16.77;8.03;;;;;;;-9.13;100.00;101113.59;5078979;28;20629;-69
2024/01/22 03:03:27;;;;;;;14.07;6.83;;;;;;;-9.10;100.00;101111.91;5062536;28;20218;-69
2024/01/22 03:05:53;;;;;;;13.37;7.33;;;;;;;-9.10;100.00;101111.06;5062416;28;20172;-67
2024/01/22 03:08:19;;;;;;;15.70;7.60;;;;;;;-9.00;100.00;101110.19;5046130;28;20049;-71
2024/01/22 03:10:45;;;;;;;14.97;7.70;;;;;;;-8.92;100.00;101099.00;5079026;28;20288;-66
2024/01/22 03:13:12;;;;;;;13.60;7.00;;;;;;;-8.86;100.00;101099.03;5045996;28;20054;-64
2024/01/22 03:15:37;;;;;;;14.70;6.97;;;;;;;-8.82;100.00;101105.00;5112327;28;20293;-65
2024/01/22 03:18:04;;;;;;;15.93;7.77;;;;;;;-8.83;100.00;101100.72;5112405;28;20142;-65
2024/01/22 03:20:29;;;;;;;14.03;7.33;;;;;;;-8.85;100.00;101107.59;5098865;27;20031;-66
2024/01/22 03:22:55;;;;;;;16.23;6.93;;;;;;;-8.79;100.00;101109.31;5115400;27;20292;-66
2024/01/22 03:25:21;;;;;;;11.87;6.07;;;;;;;-8.88;100.00;101110.16;5132430;27;20035;-67
2024/01/22 03:27:47;;;;;;;20.73;7.83;;;;;;;-8.81;100.00;101109.31;5098537;27;20043;-66
2024/01/22 03:30:13;;;;;;;16.73;6.83;;;;;;;-8.77;100.00;101105.84;5115244;27;20095;-65
2024/01/22 03:32:39;;;;;;;14.57;6.63;;;;;;;-8.83;100.00;101108.44;5112433;27;20050;-66
2024/01/22 03:35:05;;;;;;;11.23;6.13;;;;;;;-8.74;100.00;101102.41;5132086;27;20210;-65
2024/01/22 03:37:31;;;;;;;14.77;6.93;;;;;;;-8.71;100.00;101118.72;5131863;27;20296;-68
2024/01/22 03:39:57;;;;;;;18.00;8.00;;;;;;;-8.70;100.00;101112.69;5097957;27;20272;-68
2024/01/22 03:42:23;;;;;;;11.67;6.93;;;;;;;-8.68;100.00;101117.84;5112705;27;20307;-66
2024/01/22 03:44:49;;;;;;;16.47;8.07;;;;;;;-8.72;100.00;101111.00;5115212;27;20035;-65
2024/01/22 03:47:15;;;;;;;16.37;7.87;;;;;;;-8.71;100.00;101110.13;5097357;27;20050;-66
2024/01/22 03:49:40;;;;;;;16.07;7.83;;;;;;;-8.73;100.00;101110.13;5111987;27;20050;-66
2024/01/22 03:52:06;;;;;;;21.13;8.63;;;;;;;-8.73;100.00;101117.00;5082099;27;20486;-66
2024/01/22 03:54:32;;;;;;;18.23;8.60;;;;;;;-8.76;100.00;101112.72;5081571;27;20080;-66
2024/01/22 03:57:04;;;;;;;17.70;8.90;;;;;;;-8.74;100.00;101103.28;5132998;27;20479;-66
2024/01/22 03:59:30;;;;;;;17.53;8.17;;;;;;;-8.76;100.00;101117.84;5130457;27;20063;-68
2024/01/22 04:01:55;;;;;;;16.97;7.70;;;;;;;-8.72;100.00;101111.00;5095836;27;20353;-66
2024/01/22 04:04:21;;;;;;;17.60;8.90;;;;;;;-8.69;100.00;101108.41;5110848;27;20459;-66
2024/01/22 04:06:47;;;;;;;16.03;8.50;;;;;;;-8.71;100.00;101118.72;5129852;27;20035;-65
2024/01/22 04:09:13;;;;;;;26.50;9.10;;;;;;;-8.71;100.00;101111.00;5095001;27;20042;-66
2024/01/22 04:11:39;;;;;;;21.50;9.47;;;;;;;-8.68;100.00;101116.13;5109749;28;20035;-65
2024/01/22 04:14:05;;;;;;;17.87;9.03;;;;;;;-8.73;100.00;101127.31;5080098;27;20043;-66
2024/01/22 04:16:31;;;;;;;20.53;9.53;;;;;;;-8.74;100.00;101116.16;5097953;27;20759;-66
2024/01/22 04:18:57;;;;;;;21.77;9.87;;;;;;;-8.75;100.00;101117.03;5131878;27;20300;-66
2024/01/22 04:21:24;;;;;;;26.20;11.20;;;;;;;-8.61;100.00;101119.56;5095729;28;20031;-71
2024/01/22 04:23:50;;;;;;;25.20;9.93;;;;;;;-8.68;100.00;101113.56;5080136;27;20047;-67
2024/01/22 04:26:16;;;;;;;24.03;9.50;;;;;;;-8.68;100.00;101105.84;5098263;27;20280;-66
2024/01/22 04:28:42;;;;;;;18.13;8.80;;;;;;;-8.60;100.00;101096.38;5114476;27;20336;-66
2024/01/22 04:31:07;;;;;;;18.57;8.87;;;;;;;-8.60;100.00;101098.94;5113030;27;20038;-66
2024/01/22 04:33:34;;;;;;;13.70;8.43;;;;;;;-8.47;100.00;101087.72;5080679;27;20057;-67
2024/01/22 04:36:00;;;;;;;17.43;8.10;;;;;;;-8.37;100.00;101080.84;5109427;28;20292;-65
2024/01/22 04:38:26;;;;;;;19.73;8.97;;;;;;;-8.34;100.00;101092.00;5112788;27;20733;-66
2024/01/22 04:40:53;;;;;;;16.47;7.73;;;;;;;-8.35;100.00;101076.53;5131867;27;20039;-67
2024/01/22 04:43:23;;;;;;;18.27;8.53;;;;;;;-8.12;100.00;101093.59;5109633;28;20304;-66
2024/01/22 04:45:49;;;;;;;18.40;8.03;;;;;;;-8.06;100.00;101084.97;5110501;28;20494;-67
2024/01/22 04:48:15;;;;;;;18.30;8.73;;;;;;;-7.99;100.00;101089.22;5093708;28;20301;-65
2024/01/22 04:50:43;;;;;;;19.97;8.80;;;;;;;-7.92;100.00;101091.78;5113823;27;20753;-65
2024/01/22 04:53:08;;;;;;;19.80;8.33;;;;;;;-7.93;100.00;101087.47;5095100;28;20309;-65
2024/01/22 04:55:34;;;;;;;19.20;8.10;;;;;;;-7.81;100.00;101089.97;5096908;28;20165;-66
2024/01/22 04:58:01;;;;;;;20.60;8.83;;;;;;;-7.81;100.00;101092.53;5078505;28;20039;-66
2024/01/22 05:00:26;;;;;;;19.70;7.97;;;;;;;-7.82;100.00;101096.00;5096263;28;20785;-66
2024/01/22 05:02:53;;;;;;;16.13;8.40;;;;;;;-7.72;100.00;101091.66;5116581;27;20187;-65
2024/01/22 05:05:19;;;;;;;18.83;8.47;;;;;;;-7.65;100.00;101082.97;5135486;27;20288;-65
2024/01/22 05:07:45;;;;;;;24.10;9.63;;;;;;;-7.60;100.00;101091.56;5101126;27;20454;-66
2024/01/22 05:10:10;;;;;;;25.27;9.57;;;;;;;-7.66;100.00;101087.31;5101398;27;20050;-66
2024/01/22 05:12:41;;;;;;;17.57;9.03;;;;;;;-7.54;100.00;101084.63;5118808;27;20071;-66
2024/01/22 05:15:07;;;;;;;20.25;9.00;;;;;;;-7.73;100.00;101100.22;5135452;27;20047;-66
2024/01/22 05:17:33;;;;;;;19.90;8.43;;;;;;;-7.81;100.00;101099.44;5118392;27;20363;-66
2024/01/22 05:19:59;;;;;;;17.07;7.90;;;;;;;-7.76;100.00;101079.63;5118503;27;20054;-65
2024/01/22 05:22:25;;;;;;;18.87;9.03;;;;;;;-7.81;100.00;101087.38;5101399;27;20043;-65
2024/01/22 05:24:56;;;;;;;14.93;7.77;;;;;;;-7.70;100.00;101085.59;5057196;28;20157;-66
2024/01/22 05:27:27;;;;;;;21.40;8.98;;;;;;;-7.65;100.00;101088.16;5058044;28;20355;-66
2024/01/22 05:29:56;;;;;;;12.40;6.27;;;;;;;-7.89;100.00;101089.16;5025932;28;20425;-66
2024/01/22 05:32:26;;;;;;;17.60;8.33;;;;;;;-7.82;100.00;101079.66;5008103;28;20484;-66
2024/01/22 05:34:52;;;;;;;19.20;8.40;;;;;;;-7.76;100.00;101072.75;5024352;28;20572;-66
2024/01/22 05:37:18;;;;;;;18.47;8.00;;;;;;;-7.80;100.00;101083.09;5040585;28;20373;-66
2024/01/22 05:39:44;;;;;;;20.90;8.83;;;;;;;-7.81;100.00;101074.50;5007279;28;20105;-66
2024/01/22 05:42:10;;;;;;;19.53;8.33;;;;;;;-7.79;100.00;101080.50;5040408;28;20028;-66
2024/01/22 05:44:36;;;;;;;18.43;8.53;;;;;;;-7.80;100.00;101089.13;5041075;28;20237;-66
2024/01/22 05:47:01;;;;;;;21.03;9.00;;;;;;;-7.77;100.00;101088.22;5057615;28;20059;-66
2024/01/22 05:49:27;;;;;;;19.63;8.70;;;;;;;-7.74;100.00;101086.50;5056810;28;20127;-69
2024/01/22 05:51:53;;;;;;;20.90;9.10;;;;;;;-7.82;100.00;101092.53;5040176;28;20182;-66
2024/01/22 05:54:19;;;;;;;20.37;9.67;;;;;;;-7.84;100.00;101102.88;5023279;28;20519;-66
2024/01/22 05:56:44;;;;;;;18.17;9.57;;;;;;;-7.84;100.00;101102.88;5107384;28;20137;-65
2024/01/22 05:59:10;;;;;;;23.87;9.77;;;;;;;-7.88;100.00;101100.31;5097687;28;20047;-65
2024/01/22 06:01:36;;;;;;;20.60;9.10;;;;;;;-7.89;100.00;101103.78;5114499;28;20071;-65
2024/01/22 06:04:04;;;;;;;19.80;8.93;;;;;;;-7.94;100.00;101101.22;5114564;28;20104;-65
2024/01/22 06:06:30;;;;;;;23.43;9.80;;;;;;;-7.91;100.00;101111.53;5114300;28;20297;-66
2024/01/22 06:08:56;;;;;;;20.77;8.37;;;;;;;-7.86;100.00;101116.66;5097425;28;20087;-66
2024/01/22 06:11:22;;;;;;;15.60;8.80;;;;;;;-7.81;100.00;101107.19;5098612;28;20116;-66
2024/01/22 06:13:48;;;;;;;17.77;8.50;;;;;;;-7.86;100.00;101104.63;5097733;28;20050;-65
2024/01/22 06:16:16;;;;;;;17.67;8.27;;;;;;;-7.76;100.00;101098.53;5081268;28;20387;-66
2024/01/22 06:18:45;;;;;;;20.53;8.67;;;;;;;-7.89;100.00;101114.94;5098245;28;20043;-65
2024/01/22 06:21:13;;;;;;;21.50;8.60;;;;;;;-7.99;100.00;101108.13;5115602;27;20057;-66
2024/01/22 06:23:39;;;;;;;26.03;9.43;;;;;;;-8.09;100.00;101115.91;5097958;28;20281;-65
2024/01/22 06:26:05;;;;;;;16.87;8.47;;;;;;;-8.15;100.00;101116.81;5114223;28;20304;-65
2024/01/22 06:28:32;;;;;;;19.83;8.50;;;;;;;-8.12;100.00;101114.22;5097251;28;20053;-68
2024/01/22 06:30:58;;;;;;;18.30;9.17;;;;;;;-8.10;100.00;101111.63;5114536;28;20076;-65
2024/01/22 06:33:25;;;;;;;19.93;8.80;;;;;;;-8.10;100.00;101125.34;5079192;28;20062;-68
2024/01/22 06:35:52;;;;;;;20.90;8.17;;;;;;;-8.06;100.00;101136.50;5079996;28;20285;-65
2024/01/22 06:38:17;;;;;;;18.77;8.20;;;;;;;-8.06;100.00;101136.50;5097011;28;20662;-65
2024/01/22 06:40:46;;;;;;;17.20;8.43;;;;;;;-7.93;100.00;101139.03;5097145;28;20483;-65
2024/01/22 06:43:14;;;;;;;21.77;9.27;;;;;;;-8.01;100.00;101130.47;5079949;28;20052;-65
2024/01/22 06:45:40;;;;;;;21.20;9.10;;;;;;;-7.97;100.00;101136.47;5046797;28;20515;-65
2024/01/22 06:48:07;;;;;;;19.93;9.13;;;;;;;-7.96;100.00;101127.84;5096641;28;20385;-65
2024/01/22 06:50:32;;;;;;;22.50;8.93;;;;;;;-7.86;100.00;101145.88;5063280;28;20384;-66
2024/01/22 06:52:58;;;;;;;14.97;7.83;;;;;;;-7.89;100.00;101143.31;5079313;28;20399;-65
2024/01/22 06:55:24;;;;;;;20.10;8.83;;;;;;;-7.87;100.00;101144.13;5062248;28;20064;-66
2024/01/22 06:57:52;;;;;;;16.80;7.97;;;;;;;-7.78;100.00;101149.25;5096082;28;20035;-66
2024/01/22 07:00:20;;;;;;;16.73;8.20;;;;;;;-7.59;100.00;101142.25;5096244;28;20387;-65
2024/01/22 07:02:48;;;;;;;19.00;8.47;;;;;;;-7.59;100.00;101140.56;5038858;28;20295;-65
2024/01/22 07:05:16;;;;;;;18.03;8.17;;;;;;;-7.37;100.00;101160.19;5072622;28;20584;-65
2024/01/22 07:07:43;;;;;;;16.37;8.30;;;;;;;-7.32;100.00;101165.34;5058307;28;20301;-66
2024/01/22 07:10:09;;;;;;;16.13;8.40;;;;;;;-7.16;100.00;101162.63;5091975;28;20569;-65
2024/01/22 07:12:36;;;;;;;17.63;9.00;;;;;;;-7.03;100.00;101153.06;5092319;28;20048;-66
2024/01/22 07:15:04;;;;;;;19.63;8.03;;;;;;;-6.87;100.00;101169.28;5092188;28;20079;-69
2024/01/22 07:17:32;;;;;;;15.10;8.27;;;;;;;-6.02;100.00;101168.41;5059090;28;20128;-65
2024/01/22 07:19:59;;;;;;;14.50;8.53;;;;;;;-4.78;100.00;101162.25;5051719;28;20492;-65
2024/01/22 07:22:25;;;;;;;17.47;8.17;;;;;;;-4.10;100.00;101171.38;5034880;28;20072;-65
2024/01/22 07:24:51;;;;;;;16.43;7.43;;;;;;;-4.11;100.00;101175.72;5034682;28;20041;-66
2024/01/22 07:27:18;;;;;;;15.20;7.67;;;;;;;-4.44;100.00;101165.09;5033758;28;20479;-65
2024/01/22 07:29:44;;;;;;;15.90;7.40;;;;;;;-4.80;100.00;101169.22;5067711;28;20507;-65
2024/01/22 07:32:11;;;;;;;14.93;8.03;;;;;;;-5.08;100.00;101167.06;5034787;28;20052;-66
2024/01/22 07:34:37;;;;;;;16.57;7.53;;;;;;;-5.21;100.00;101163.81;5038548;28;20072;-65
2024/01/22 07:37:03;;;;;;;12.90;7.57;;;;;;;-5.34;100.00;101162.28;5058133;28;20145;-66
2024/01/22 07:39:29;;;;;;;16.50;8.57;;;;;;;-5.34;100.00;101162.28;5091398;28;20105;-68
2024/01/22 07:41:54;;;;;;;13.93;7.17;;;;;;;-5.17;100.00;101162.91;5070966;28;20068;-65
2024/01/22 07:44:20;;;;;;;17.70;7.70;;;;;;;-5.18;100.00;101159.44;5037846;28;20056;-65
2024/01/22 07:46:46;;;;;;;15.53;7.63;;;;;;;-5.10;100.00;101161.09;5054259;28;20052;-65
2024/01/22 07:49:12;;;;;;;17.77;8.10;;;;;;;-5.09;100.00;101163.66;5070854;28;20559;-65
2024/01/22 07:51:38;;;;;;;17.33;7.00;;;;;;;-4.92;100.00;101155.59;5070160;28;20052;-65
2024/01/22 07:54:05;;;;;;;17.60;8.23;;;;;;;-4.86;100.00;101171.91;5057807;28;20213;-71
2024/01/22 07:56:31;;;;;;;15.47;7.20;;;;;;;-4.75;100.00;101157.00;5041239;28;20056;-65
2024/01/22 07:58:58;;;;;;;15.63;6.73;;;;;;;-4.60;100.00;101146.41;5074350;28;20040;-65
2024/01/22 08:01:24;;;;;;;14.80;7.83;;;;;;;-4.55;100.00;101141.97;5017724;28;20067;-65
2024/01/22 08:03:50;;;;;;;17.23;6.70;;;;;;;-4.47;100.00;101136.63;5050759;28;20061;-66
2024/01/22 08:06:16;;;;;;;14.53;7.27;;;;;;;-4.61;100.00;101136.06;5018392;28;20053;-65
2024/01/22 08:08:43;;;;;;;15.57;6.67;;;;;;;-4.53;100.00;101119.47;5051323;28;20049;-66
2024/01/22 08:11:09;;;;;;;14.40;6.90;;;;;;;-4.42;100.00;101124.47;5052107;28;20076;-66
2024/01/22 08:13:34;;;;;;;14.73;7.07;;;;;;;-4.19;100.00;101117.94;5033938;28;20527;-65
2024/01/22 08:16:00;;;;;;;14.57;7.00;;;;;;;-3.91;100.00;101121.69;5054629;28;20075;-66
2024/01/22 08:18:26;;;;;;;14.50;6.97;;;;;;;-3.80;100.00;101130.09;5071139;28;20037;-65
2024/01/22 08:20:52;;;;;;;12.60;7.20;;;;;;;-3.75;100.00;101115.28;5054257;28;20488;-66
2024/01/22 08:23:18;;;;;;;13.97;6.63;;;;;;;-3.57;100.00;101107.09;5037932;28;20571;-65
2024/01/22 08:25:44;;;;;;;14.53;7.23;;;;;;;-3.59;100.00;101118.41;5036990;28;20139;-65
2024/01/22 08:28:10;;;;;;;13.40;6.63;;;;;;;-3.61;100.00;101110.66;5020187;28;20144;-66
2024/01/22 08:30:35;;;;;;;12.97;6.90;;;;;;;-3.63;100.00;101120.19;5037218;28;20454;-66
2024/01/22 08:33:01;;;;;;;11.73;6.60;;;;;;;-3.57;100.00;101112.28;5081172;28;20047;-65
2024/01/22 08:35:27;;;;;;;11.00;6.23;;;;;;;-3.38;100.00;101112.72;5094887;28;20040;-66
2024/01/22 08:37:54;;;;;;;12.37;6.40;;;;;;;-3.20;100.00;101094.13;5094285;28;20159;-66
2024/01/22 08:40:22;;;;;;;10.33;6.10;;;;;;;-3.06;100.00;101105.00;5077641;28;20047;-66
2024/01/22 08:42:53;;;;;;;9.07;5.20;;;;;;;-2.86;100.00;101112.34;5072951;28;20442;-65
2024/01/22 08:45:19;;;;;;;13.88;6.55;;;;;;;-2.91;100.00;101099.44;5056532;28;20050;-65
2024/01/22 08:47:49;;;;;;;13.17;6.63;;;;;;;-2.72;100.00;101089.44;5056332;28;20083;-65
2024/01/22 08:50:21;;;;;;;14.35;6.43;;;;;;;-2.77;100.00;101101.69;5049575;28;20123;-65
2024/01/22 08:52:48;;;;;;;12.47;5.87;;;;;;;-2.71;100.00;101091.13;5000321;28;20052;-66
2024/01/22 08:55:15;;;;;;;12.13;6.13;;;;;;;-2.48;100.00;101096.56;5033346;28;20057;-65
2024/01/22 08:57:45;;;;;;;11.83;6.07;;;;;;;-2.41;100.00;101098.09;5033176;28;20053;-66
2024/01/22 09:00:11;;;;;;;12.03;5.47;;;;;;;-2.20;100.00;101095.75;5000318;28;20481;-66
2024/01/22 09:02:42;;;;;;;10.47;5.53;;;;;;;-1.95;100.00;101083.75;5033308;28;20052;-65
2024/01/22 09:05:12;;;;;;;13.48;6.03;;;;;;;-1.52;100.00;101079.88;5017064;28;20096;-66
2024/01/22 09:07:38;;;;;;;11.10;6.40;;;;;;;0.15;100.00;101087.94;4990355;28;20061;-65
2024/01/22 09:10:06;;;;;;;11.53;5.80;;;;;;;0.69;100.00;101079.72;4974042;28;20054;-66
2024/01/22 09:12:36;;;;;;;10.93;5.20;;;;;;;0.53;100.00;101070.78;4990077;28;20058;-66
2024/01/22 09:15:06;;;;;;;9.73;5.63;;;;;;;0.67;100.00;101082.41;4993576;28;20054;-66
2024/01/22 09:17:33;;;;;;;9.40;5.10;;;;;;;0.12;100.00;101077.63;4993697;28;20049;-66
2024/01/22 09:20:00;;;;;;;9.83;5.53;;;;;;;-0.26;100.00;101081.63;4977536;28;20132;-66
2024/01/22 09:22:28;;;;;;;11.10;6.00;;;;;;;-0.42;100.00;101071.78;5053010;28;20171;-66
2024/01/22 09:24:55;;;;;;;8.77;5.80;;;;;;;-0.54;100.00;101060.00;5052987;28;20036;-65
2024/01/22 09:27:25;;;;;;;9.23;5.00;;;;;;;-0.72;100.00;101054.59;5052882;28;20072;-66
2024/01/22 09:29:50;;;;;;;10.43;4.77;;;;;;;-1.04;100.00;101065.25;5069677;28;20168;-69
2024/01/22 09:32:16;;;;;;;9.23;5.10;;;;;;;-0.85;100.00;101048.97;5019754;28;20547;-65
2024/01/22 09:34:43;;;;;;;9.03;5.27;;;;;;;-0.31;100.00;101060.03;5019839;28;20082;-66
2024/01/22 09:37:11;;;;;;;7.80;5.60;;;;;;;0.74;100.00;101051.66;5020065;28;20044;-67
2024/01/22 09:39:37;;;;;;;11.10;5.67;;;;;;;2.00;100.00;101038.22;5073850;28;20047;-65
2024/01/22 09:42:04;;;;;;;9.33;6.00;;;;;;;3.58;91.22;101055.75;5093860;28;20379;-66
2024/01/22 09:44:32;;;;;;;8.07;5.40;;;;;;;4.13;79.30;101060.63;5110541;28;20476;-66
2024/01/22 09:46:59;;;;;;;11.93;6.38;;;;;;;5.30;71.32;101031.09;5060679;28;20047;-65
2024/01/22 09:49:25;;;;;;;9.63;6.30;;;;;;;5.47;63.76;101030.94;5095129;28;20071;-66
2024/01/22 09:51:51;;;;;;;10.57;7.38;;;;;;;5.69;60.36;101023.44;5097947;28;20486;-65
2024/01/22 09:54:18;;;;;;;16.95;6.68;;;;;;;6.19;57.70;101018.53;5072684;28;20446;-66
2024/01/22 09:56:54;;;;;;;11.23;6.53;;;;;;;7.69;54.82;101020.75;5039554;28;20083;-65
2024/01/22 09:59:24;;;;;;;7.30;5.45;;;;;;;8.31;49.26;101014.56;5072887;28;20460;-66
2024/01/22 10:01:52;;;;;;;9.25;5.70;;;;;;;7.76;46.11;101025.53;5072814;28;20592;-65
2024/01/22 10:04:19;;;;;;;10.88;5.05;;;;;;;6.03;46.63;101002.84;5072532;28;20066;-66
2024/01/22 10:06:46;;;;;;;10.35;5.75;;;;;;;3.87;50.53;100984.13;5039263;28;20060;-67
2024/01/22 10:09:17;;;;;;;10.32;5.75;;;;;;;2.07;58.38;100984.63;5072440;28;20174;-67
2024/01/22 10:11:44;;;;;;;12.10;6.28;;;;;;;1.16;68.47;100973.97;5072829;28;20056;-67
2024/01/22 10:14:10;;;;;;;10.93;5.77;;;;;;;0.32;78.71;100974.94;5039734;28;20049;-66
2024/01/22 10:16:37;;;;;;;10.70;4.83;;;;;;;-0.09;87.59;100969.59;5055762;28;20069;-65
2024/01/22 10:19:05;;;;;;;9.53;4.90;;;;;;;-0.47;93.61;100998.88;5055780;28;20361;-66
2024/01/22 10:21:32;;;;;;;9.20;5.00;;;;;;;-0.69;100.00;100987.50;5039526;28;20043;-66
2024/01/22 10:24:06;;;;;;;9.97;5.13;;;;;;;0.32;100.00;100965.34;5072816;28;20044;-66
2024/01/22 10:26:34;;;;;;;9.23;4.97;;;;;;;1.97;94.45;100959.75;5097274;28;20639;-66
2024/01/22 10:29:17;;;;;;;11.90;5.57;;;;;;;3.53;82.04;100994.72;5097054;28;20036;-65
2024/01/22 10:31:58;;;;;;;8.77;5.73;;;;;;;4.48;72.03;100974.50;5115180;28;20047;-70
2024/01/22 10:34:42;;;;;;;11.43;6.55;;;;;;;4.49;66.71;100976.22;5113797;28;20051;-66
2024/01/22 10:37:12;;;;;;;7.30;5.37;;;;;;;4.35;63.59;100976.16;5079884;28;20046;-65
2024/01/22 10:39:42;;;;;;;9.68;4.60;;;;;;;5.04;61.38;100972.09;5113649;28;20158;-65
2024/01/22 10:42:13;;;;;;;8.05;5.18;;;;;;;3.91;60.53;100961.97;5096864;28;20051;-66
2024/01/22 10:44:43;;;;;;;8.75;5.53;;;;;;;4.08;63.52;100969.78;5113801;28;20461;-66
2024/01/22 10:47:14;;;;;;;10.35;6.63;;;;;;;4.54;64.66;100976.78;5097084;28;20135;-66
2024/01/22 10:49:44;;;;;;;7.57;4.80;;;;;;;4.46;62.37;100964.06;5113739;28;20039;-65
2024/01/22 10:52:11;;;;;;;7.38;5.07;;;;;;;3.24;65.18;100989.19;5113883;28;20161;-65
2024/01/22 10:54:37;;;;;;;8.53;5.40;;;;;;;3.22;71.15;100975.31;5080363;28;20040;-65
2024/01/22 10:57:06;;;;;;;8.27;4.97;;;;;;;4.10;71.05;100966.16;5097134;28;20491;-66
2024/01/22 10:59:41;;;;;;;6.38;4.88;;;;;;;5.62;67.86;100970.25;5080310;28;20479;-65
2024/01/22 11:02:15;;;;;;;7.55;5.25;;;;;;;5.47;63.36;100991.44;5115063;28;20062;-65
2024/01/22 11:04:44;;;;;;;5.70;5.05;;;;;;;4.41;65.78;100945.06;5080848;28;20388;-65
2024/01/22 11:07:11;;;;;;;5.72;4.57;;;;;;;5.03;70.96;100971.22;5038822;28;20374;-65
2024/01/22 11:09:39;;;;;;;9.00;4.40;;;;;;;4.52;66.29;100976.88;5038646;28;20561;-65
2024/01/22 11:12:12;;;;;;;8.55;5.32;;;;;;;5.20;67.48;100967.59;5054964;28;20342;-66